sensor_id;sensor_type;location;lat;lon;timestamp;P1;durP1;ratioP1;P2;durP2;ratioP2
26822;SDS011;14852;51.910;8.878;2022-10-26T00:00:50;5.55;;;3.50;;
26822;SDS011;14852;51.910;8.878;2022-10-26T00:03:16;4.25;;;2.58;;
26822;SDS011;14852;51.910;8.878;2022-10-26T00:05:43;5.35;;;3.08;;
26822;SDS011;14852;51.910;8.878;2022-10-26T00:08:09;4.10;;;2.97;;
26822;SDS011;14852;51.910;8.878;2022-10-26T00:10:36;4.10;;;2.60;;
26822;SDS011;14852;51.910;8.878;2022-10-26T00:13:03;3.58;;;3.25;;
26822;SDS011;14852;51.910;8.878;2022-10-26T00:15:33;4.80;;;2.95;;
26822;SDS011;14852;51.910;8.878;2022-10-26T00:17:58;4.22;;;2.92;;
26822;SDS011;14852;51.910;8.878;2022-10-26T00:20:24;5.70;;;3.28;;
26822;SDS011;14852;51.910;8.878;2022-10-26T00:22:50;4.72;;;3.03;;
26822;SDS011;14852;51.910;8.878;2022-10-26T00:25:16;4.60;;;3.50;;
26822;SDS011;14852;51.910;8.878;2022-10-26T00:27:42;5.18;;;2.97;;
26822;SDS011;14852;51.910;8.878;2022-10-26T00:30:08;3.75;;;2.67;;
26822;SDS011;14852;51.910;8.878;2022-10-26T00:32:34;5.32;;;2.40;;
26822;SDS011;14852;51.910;8.878;2022-10-26T00:35:00;5.80;;;3.15;;
26822;SDS011;14852;51.910;8.878;2022-10-26T00:37:26;3.08;;;2.78;;
26822;SDS011;14852;51.910;8.878;2022-10-26T00:39:51;5.10;;;2.90;;
26822;SDS011;14852;51.910;8.878;2022-10-26T00:42:18;8.43;;;3.00;;
26822;SDS011;14852;51.910;8.878;2022-10-26T00:49:56;4.95;;;2.67;;
26822;SDS011;14852;51.910;8.878;2022-10-26T00:52:26;3.67;;;2.85;;
26822;SDS011;14852;51.910;8.878;2022-10-26T00:54:53;5.28;;;2.83;;
26822;SDS011;14852;51.910;8.878;2022-10-26T00:57:20;5.95;;;3.58;;
26822;SDS011;14852;51.910;8.878;2022-10-26T00:59:46;3.97;;;3.38;;
26822;SDS011;14852;51.910;8.878;2022-10-26T01:02:12;4.53;;;3.72;;
26822;SDS011;14852;51.910;8.878;2022-10-26T01:04:38;6.85;;;3.90;;
26822;SDS011;14852;51.910;8.878;2022-10-26T01:07:04;5.35;;;3.50;;
26822;SDS011;14852;51.910;8.878;2022-10-26T01:09:31;4.00;;;3.50;;
26822;SDS011;14852;51.910;8.878;2022-10-26T01:11:58;6.85;;;3.53;;
26822;SDS011;14852;51.910;8.878;2022-10-26T01:14:24;4.50;;;2.95;;
26822;SDS011;14852;51.910;8.878;2022-10-26T01:28:12;8.07;;;4.30;;
26822;SDS011;14852;51.910;8.878;2022-10-26T01:31:01;8.50;;;4.55;;
26822;SDS011;14852;51.910;8.878;2022-10-26T01:33:36;8.30;;;4.22;;
26822;SDS011;14852;51.910;8.878;2022-10-26T01:36:12;4.85;;;4.25;;
26822;SDS011;14852;51.910;8.878;2022-10-26T01:39:01;6.40;;;4.00;;
26822;SDS011;14852;51.910;8.878;2022-10-26T01:41:43;11.40;;;4.28;;
26822;SDS011;14852;51.910;8.878;2022-10-26T01:44:15;4.90;;;3.97;;
26822;SDS011;14852;51.910;8.878;2022-10-26T01:46:49;4.50;;;3.05;;
26822;SDS011;14852;51.910;8.878;2022-10-26T01:49:19;7.55;;;3.90;;
26822;SDS011;14852;51.910;8.878;2022-10-26T01:51:50;3.85;;;3.05;;
26822;SDS011;14852;51.910;8.878;2022-10-26T01:54:15;6.63;;;3.42;;
26822;SDS011;14852;51.910;8.878;2022-10-26T01:56:43;4.95;;;3.10;;
26822;SDS011;14852;51.910;8.878;2022-10-26T02:07:39;9.23;;;5.68;;
26822;SDS011;14852;51.910;8.878;2022-10-26T02:15:58;5.60;;;4.18;;
26822;SDS011;14852;51.910;8.878;2022-10-26T02:21:20;5.60;;;4.10;;
26822;SDS011;14852;51.910;8.878;2022-10-26T02:23:52;6.38;;;4.15;;
26822;SDS011;14852;51.910;8.878;2022-10-26T02:26:22;5.20;;;4.70;;
26822;SDS011;14852;51.910;8.878;2022-10-26T02:28:52;5.03;;;4.20;;
26822;SDS011;14852;51.910;8.878;2022-10-26T02:31:22;5.30;;;4.32;;
26822;SDS011;14852;51.910;8.878;2022-10-26T02:33:49;4.78;;;4.07;;
26822;SDS011;14852;51.910;8.878;2022-10-26T02:36:21;6.13;;;4.20;;
26822;SDS011;14852;51.910;8.878;2022-10-26T02:38:53;8.48;;;4.65;;
26822;SDS011;14852;51.910;8.878;2022-10-26T02:41:20;6.00;;;5.03;;
26822;SDS011;14852;51.910;8.878;2022-10-26T02:44:05;8.80;;;5.85;;
26822;SDS011;14852;51.910;8.878;2022-10-26T02:46:41;6.40;;;5.53;;
26822;SDS011;14852;51.910;8.878;2022-10-26T02:49:08;7.55;;;5.20;;
26822;SDS011;14852;51.910;8.878;2022-10-26T02:51:44;9.70;;;5.07;;
26822;SDS011;14852;51.910;8.878;2022-10-26T02:54:18;4.97;;;4.43;;
26822;SDS011;14852;51.910;8.878;2022-10-26T02:59:21;8.57;;;5.07;;
26822;SDS011;14852;51.910;8.878;2022-10-26T03:01:52;7.20;;;5.85;;
26822;SDS011;14852;51.910;8.878;2022-10-26T03:04:18;7.20;;;5.07;;
26822;SDS011;14852;51.910;8.878;2022-10-26T03:06:51;6.85;;;5.03;;
26822;SDS011;14852;51.910;8.878;2022-10-26T03:09:18;9.82;;;5.00;;
26822;SDS011;14852;51.910;8.878;2022-10-26T03:11:44;8.75;;;5.18;;
26822;SDS011;14852;51.910;8.878;2022-10-26T03:14:09;7.53;;;6.00;;
26822;SDS011;14852;51.910;8.878;2022-10-26T03:16:35;9.85;;;7.13;;
26822;SDS011;14852;51.910;8.878;2022-10-26T03:19:01;12.05;;;7.88;;
26822;SDS011;14852;51.910;8.878;2022-10-26T03:21:27;13.45;;;9.63;;
26822;SDS011;14852;51.910;8.878;2022-10-26T03:23:53;12.40;;;8.35;;
26822;SDS011;14852;51.910;8.878;2022-10-26T03:26:19;12.70;;;9.57;;
26822;SDS011;14852;51.910;8.878;2022-10-26T03:28:45;12.68;;;10.40;;
26822;SDS011;14852;51.910;8.878;2022-10-26T03:31:11;12.35;;;8.75;;
26822;SDS011;14852;51.910;8.878;2022-10-26T03:33:36;14.60;;;10.60;;
26822;SDS011;14852;51.910;8.878;2022-10-26T03:36:02;13.50;;;11.82;;
26822;SDS011;14852;51.910;8.878;2022-10-26T03:38:28;14.68;;;11.73;;
26822;SDS011;14852;51.910;8.878;2022-10-26T03:40:54;13.63;;;11.80;;
26822;SDS011;14852;51.910;8.878;2022-10-26T03:43:20;12.55;;;10.52;;
26822;SDS011;14852;51.910;8.878;2022-10-26T03:45:46;14.20;;;10.68;;
26822;SDS011;14852;51.910;8.878;2022-10-26T03:48:12;13.27;;;11.93;;
26822;SDS011;14852;51.910;8.878;2022-10-26T03:50:38;15.10;;;12.02;;
26822;SDS011;14852;51.910;8.878;2022-10-26T03:53:03;16.67;;;12.10;;
26822;SDS011;14852;51.910;8.878;2022-10-26T03:55:30;14.43;;;12.88;;
26822;SDS011;14852;51.910;8.878;2022-10-26T03:57:56;12.80;;;11.13;;
26822;SDS011;14852;51.910;8.878;2022-10-26T04:00:21;13.65;;;11.45;;
26822;SDS011;14852;51.910;8.878;2022-10-26T04:02:57;13.27;;;11.30;;
26822;SDS011;14852;51.910;8.878;2022-10-26T04:05:25;14.63;;;12.60;;
26822;SDS011;14852;51.910;8.878;2022-10-26T04:07:53;17.00;;;14.48;;
26822;SDS011;14852;51.910;8.878;2022-10-26T04:10:21;16.48;;;12.88;;
26822;SDS011;14852;51.910;8.878;2022-10-26T04:12:49;17.60;;;14.68;;
26822;SDS011;14852;51.910;8.878;2022-10-26T04:15:16;15.10;;;12.20;;
26822;SDS011;14852;51.910;8.878;2022-10-26T04:17:42;21.88;;;13.20;;
26822;SDS011;14852;51.910;8.878;2022-10-26T04:20:08;13.45;;;11.18;;
26822;SDS011;14852;51.910;8.878;2022-10-26T04:22:34;12.85;;;11.45;;
26822;SDS011;14852;51.910;8.878;2022-10-26T04:25:01;12.82;;;9.77;;
26822;SDS011;14852;51.910;8.878;2022-10-26T04:27:31;12.48;;;10.63;;
26822;SDS011;14852;51.910;8.878;2022-10-26T04:29:57;14.30;;;10.60;;
26822;SDS011;14852;51.910;8.878;2022-10-26T04:32:23;13.23;;;10.32;;
26822;SDS011;14852;51.910;8.878;2022-10-26T04:34:49;11.88;;;10.55;;
26822;SDS011;14852;51.910;8.878;2022-10-26T04:37:15;12.98;;;10.50;;
26822;SDS011;14852;51.910;8.878;2022-10-26T04:39:40;12.23;;;10.93;;
26822;SDS011;14852;51.910;8.878;2022-10-26T04:42:06;13.68;;;11.05;;
26822;SDS011;14852;51.910;8.878;2022-10-26T04:44:32;13.80;;;11.30;;
26822;SDS011;14852;51.910;8.878;2022-10-26T04:46:58;11.82;;;10.00;;
26822;SDS011;14852;51.910;8.878;2022-10-26T04:49:23;13.85;;;11.13;;
26822;SDS011;14852;51.910;8.878;2022-10-26T04:51:49;12.05;;;10.50;;
26822;SDS011;14852;51.910;8.878;2022-10-26T04:54:15;13.13;;;10.25;;
26822;SDS011;14852;51.910;8.878;2022-10-26T04:56:40;13.52;;;11.13;;
26822;SDS011;14852;51.910;8.878;2022-10-26T04:59:06;15.13;;;10.57;;
26822;SDS011;14852;51.910;8.878;2022-10-26T05:01:32;14.05;;;10.95;;
26822;SDS011;14852;51.910;8.878;2022-10-26T05:03:58;11.77;;;9.38;;
26822;SDS011;14852;51.910;8.878;2022-10-26T05:06:24;13.75;;;10.25;;
26822;SDS011;14852;51.910;8.878;2022-10-26T05:08:49;22.33;;;9.93;;
26822;SDS011;14852;51.910;8.878;2022-10-26T05:11:15;12.02;;;10.15;;
26822;SDS011;14852;51.910;8.878;2022-10-26T05:13:41;12.40;;;9.75;;
26822;SDS011;14852;51.910;8.878;2022-10-26T05:16:07;11.82;;;9.23;;
26822;SDS011;14852;51.910;8.878;2022-10-26T05:18:33;14.23;;;10.45;;
26822;SDS011;14852;51.910;8.878;2022-10-26T05:20:58;12.00;;;10.02;;
26822;SDS011;14852;51.910;8.878;2022-10-26T05:23:24;14.73;;;11.13;;
26822;SDS011;14852;51.910;8.878;2022-10-26T05:25:50;11.93;;;9.80;;
26822;SDS011;14852;51.910;8.878;2022-10-26T05:28:16;16.65;;;10.00;;
26822;SDS011;14852;51.910;8.878;2022-10-26T05:30:43;9.82;;;8.80;;
26822;SDS011;14852;51.910;8.878;2022-10-26T05:33:10;12.68;;;8.98;;
26822;SDS011;14852;51.910;8.878;2022-10-26T05:35:37;11.20;;;9.70;;
26822;SDS011;14852;51.910;8.878;2022-10-26T05:38:12;10.48;;;9.35;;
26822;SDS011;14852;51.910;8.878;2022-10-26T05:40:48;9.40;;;8.40;;
26822;SDS011;14852;51.910;8.878;2022-10-26T05:43:15;12.55;;;9.65;;
26822;SDS011;14852;51.910;8.878;2022-10-26T05:45:42;13.38;;;10.27;;
26822;SDS011;14852;51.910;8.878;2022-10-26T05:48:08;8.80;;;7.68;;
26822;SDS011;14852;51.910;8.878;2022-10-26T05:50:34;11.50;;;9.20;;
26822;SDS011;14852;51.910;8.878;2022-10-26T05:52:59;12.50;;;8.85;;
26822;SDS011;14852;51.910;8.878;2022-10-26T05:55:25;13.93;;;9.32;;
26822;SDS011;14852;51.910;8.878;2022-10-26T05:57:52;13.13;;;8.85;;
26822;SDS011;14852;51.910;8.878;2022-10-26T06:00:22;9.93;;;7.78;;
26822;SDS011;14852;51.910;8.878;2022-10-26T06:05:36;10.15;;;8.73;;
26822;SDS011;14852;51.910;8.878;2022-10-26T06:08:16;14.40;;;8.77;;
26822;SDS011;14852;51.910;8.878;2022-10-26T06:10:43;15.30;;;8.55;;
26822;SDS011;14852;51.910;8.878;2022-10-26T06:13:09;9.63;;;7.65;;
26822;SDS011;14852;51.910;8.878;2022-10-26T06:19:05;8.90;;;7.55;;
26822;SDS011;14852;51.910;8.878;2022-10-26T06:25:03;9.32;;;7.40;;
26822;SDS011;14852;51.910;8.878;2022-10-26T06:30:24;9.48;;;7.18;;
26822;SDS011;14852;51.910;8.878;2022-10-26T06:32:50;10.90;;;8.90;;
26822;SDS011;14852;51.910;8.878;2022-10-26T06:38:16;9.63;;;8.00;;
26822;SDS011;14852;51.910;8.878;2022-10-26T06:40:46;9.15;;;8.10;;
26822;SDS011;14852;51.910;8.878;2022-10-26T06:43:19;11.35;;;8.13;;
26822;SDS011;14852;51.910;8.878;2022-10-26T06:54:52;11.55;;;8.18;;
26822;SDS011;14852;51.910;8.878;2022-10-26T06:57:20;15.80;;;10.38;;
26822;SDS011;14852;51.910;8.878;2022-10-26T06:59:57;10.70;;;8.63;;
26822;SDS011;14852;51.910;8.878;2022-10-26T07:02:30;13.35;;;9.02;;
26822;SDS011;14852;51.910;8.878;2022-10-26T07:04:56;10.43;;;8.50;;
26822;SDS011;14852;51.910;8.878;2022-10-26T07:07:23;11.52;;;9.20;;
26822;SDS011;14852;51.910;8.878;2022-10-26T07:09:51;11.15;;;8.43;;
26822;SDS011;14852;51.910;8.878;2022-10-26T07:12:17;11.68;;;8.52;;
26822;SDS011;14852;51.910;8.878;2022-10-26T07:14:43;10.95;;;8.70;;
26822;SDS011;14852;51.910;8.878;2022-10-26T07:17:09;9.60;;;7.82;;
26822;SDS011;14852;51.910;8.878;2022-10-26T07:19:35;10.18;;;8.27;;
26822;SDS011;14852;51.910;8.878;2022-10-26T07:22:01;12.77;;;7.75;;
26822;SDS011;14852;51.910;8.878;2022-10-26T07:24:27;10.10;;;8.05;;
26822;SDS011;14852;51.910;8.878;2022-10-26T07:26:54;10.10;;;8.50;;
26822;SDS011;14852;51.910;8.878;2022-10-26T07:29:21;10.98;;;8.20;;
26822;SDS011;14852;51.910;8.878;2022-10-26T07:31:48;11.70;;;8.95;;
26822;SDS011;14852;51.910;8.878;2022-10-26T07:34:15;11.48;;;8.27;;
26822;SDS011;14852;51.910;8.878;2022-10-26T07:36:41;9.35;;;8.38;;
26822;SDS011;14852;51.910;8.878;2022-10-26T07:39:07;12.65;;;8.35;;
26822;SDS011;14852;51.910;8.878;2022-10-26T07:41:33;11.60;;;8.07;;
26822;SDS011;14852;51.910;8.878;2022-10-26T07:43:59;9.18;;;8.02;;
26822;SDS011;14852;51.910;8.878;2022-10-26T07:46:25;10.88;;;9.07;;
26822;SDS011;14852;51.910;8.878;2022-10-26T07:48:51;8.65;;;7.07;;
26822;SDS011;14852;51.910;8.878;2022-10-26T07:51:17;9.65;;;7.78;;
26822;SDS011;14852;51.910;8.878;2022-10-26T07:53:44;9.38;;;7.57;;
26822;SDS011;14852;51.910;8.878;2022-10-26T07:56:10;8.68;;;7.40;;
26822;SDS011;14852;51.910;8.878;2022-10-26T07:58:37;11.82;;;7.60;;
26822;SDS011;14852;51.910;8.878;2022-10-26T08:01:07;9.45;;;7.30;;
26822;SDS011;14852;51.910;8.878;2022-10-26T08:03:35;10.68;;;7.75;;
26822;SDS011;14852;51.910;8.878;2022-10-26T08:06:01;8.10;;;7.00;;
26822;SDS011;14852;51.910;8.878;2022-10-26T08:08:29;10.10;;;7.80;;
26822;SDS011;14852;51.910;8.878;2022-10-26T08:10:56;11.23;;;7.75;;
26822;SDS011;14852;51.910;8.878;2022-10-26T08:13:23;8.43;;;6.50;;
26822;SDS011;14852;51.910;8.878;2022-10-26T08:15:49;10.23;;;7.05;;
26822;SDS011;14852;51.910;8.878;2022-10-26T08:18:19;7.50;;;5.78;;
26822;SDS011;14852;51.910;8.878;2022-10-26T08:20:45;11.23;;;6.57;;
26822;SDS011;14852;51.910;8.878;2022-10-26T08:23:11;8.55;;;5.53;;
26822;SDS011;14852;51.910;8.878;2022-10-26T08:25:37;10.85;;;5.50;;
26822;SDS011;14852;51.910;8.878;2022-10-26T08:28:03;6.97;;;5.50;;
26822;SDS011;14852;51.910;8.878;2022-10-26T08:30:30;10.52;;;6.30;;
26822;SDS011;14852;51.910;8.878;2022-10-26T08:32:59;7.68;;;5.80;;
26822;SDS011;14852;51.910;8.878;2022-10-26T08:35:30;9.43;;;5.63;;
26822;SDS011;14852;51.910;8.878;2022-10-26T08:37:57;6.45;;;4.65;;
26822;SDS011;14852;51.910;8.878;2022-10-26T08:40:25;6.97;;;5.53;;
26822;SDS011;14852;51.910;8.878;2022-10-26T08:42:57;5.60;;;4.80;;
26822;SDS011;14852;51.910;8.878;2022-10-26T08:45:54;8.65;;;5.10;;
26822;SDS011;14852;51.910;8.878;2022-10-26T08:48:26;6.30;;;5.13;;
26822;SDS011;14852;51.910;8.878;2022-10-26T08:50:59;6.82;;;4.43;;
26822;SDS011;14852;51.910;8.878;2022-10-26T08:53:39;8.52;;;4.93;;
26822;SDS011;14852;51.910;8.878;2022-10-26T08:56:22;5.22;;;4.10;;
26822;SDS011;14852;51.910;8.878;2022-10-26T09:01:53;6.28;;;4.53;;
26822;SDS011;14852;51.910;8.878;2022-10-26T09:04:19;11.40;;;5.30;;
26822;SDS011;14852;51.910;8.878;2022-10-26T09:13:00;8.02;;;4.97;;
26822;SDS011;14852;51.910;8.878;2022-10-26T09:15:37;7.28;;;5.63;;
26822;SDS011;14852;51.910;8.878;2022-10-26T09:18:32;7.55;;;4.97;;
26822;SDS011;14852;51.910;8.878;2022-10-26T09:24:31;5.32;;;3.92;;
26822;SDS011;14852;51.910;8.878;2022-10-26T09:29:54;8.00;;;5.65;;
26822;SDS011;14852;51.910;8.878;2022-10-26T09:32:46;9.38;;;5.57;;
26822;SDS011;14852;51.910;8.878;2022-10-26T09:35:19;7.13;;;4.78;;
26822;SDS011;14852;51.910;8.878;2022-10-26T09:38:05;6.32;;;4.65;;
26822;SDS011;14852;51.910;8.878;2022-10-26T09:43:27;10.45;;;5.93;;
26822;SDS011;14852;51.910;8.878;2022-10-26T09:46:08;7.78;;;4.72;;
26822;SDS011;14852;51.910;8.878;2022-10-26T09:48:42;6.47;;;4.88;;
26822;SDS011;14852;51.910;8.878;2022-10-26T09:51:15;9.20;;;6.18;;
26822;SDS011;14852;51.910;8.878;2022-10-26T09:53:42;7.47;;;6.07;;
26822;SDS011;14852;51.910;8.878;2022-10-26T09:56:09;6.15;;;4.65;;
26822;SDS011;14852;51.910;8.878;2022-10-26T09:58:51;10.65;;;6.30;;
26822;SDS011;14852;51.910;8.878;2022-10-26T10:07:29;9.32;;;5.45;;
26822;SDS011;14852;51.910;8.878;2022-10-26T10:09:38;6.82;;;5.18;;
26822;SDS011;14852;51.910;8.878;2022-10-26T10:12:04;6.57;;;5.13;;
26822;SDS011;14852;51.910;8.878;2022-10-26T10:14:31;9.40;;;5.40;;
26822;SDS011;14852;51.910;8.878;2022-10-26T10:17:19;9.25;;;4.43;;
26822;SDS011;14852;51.910;8.878;2022-10-26T10:19:47;5.53;;;4.50;;
26822;SDS011;14852;51.910;8.878;2022-10-26T10:24:40;7.18;;;4.82;;
26822;SDS011;14852;51.910;8.878;2022-10-26T10:27:16;5.78;;;4.50;;
26822;SDS011;14852;51.910;8.878;2022-10-26T10:29:47;9.60;;;4.43;;
26822;SDS011;14852;51.910;8.878;2022-10-26T10:32:16;6.22;;;4.35;;
26822;SDS011;14852;51.910;8.878;2022-10-26T10:34:45;9.45;;;3.55;;
26822;SDS011;14852;51.910;8.878;2022-10-26T10:37:37;5.70;;;2.95;;
26822;SDS011;14852;51.910;8.878;2022-10-26T10:42:44;4.63;;;2.88;;
26822;SDS011;14852;51.910;8.878;2022-10-26T10:48:34;4.40;;;3.28;;
26822;SDS011;14852;51.910;8.878;2022-10-26T10:51:04;5.00;;;2.70;;
26822;SDS011;14852;51.910;8.878;2022-10-26T10:59:24;5.75;;;3.47;;
26822;SDS011;14852;51.910;8.878;2022-10-26T11:07:48;3.70;;;2.70;;
26822;SDS011;14852;51.910;8.878;2022-10-26T11:13:29;3.35;;;2.40;;
26822;SDS011;14852;51.910;8.878;2022-10-26T11:16:03;4.07;;;2.53;;
26822;SDS011;14852;51.910;8.878;2022-10-26T11:18:38;6.95;;;2.90;;
26822;SDS011;14852;51.910;8.878;2022-10-26T11:21:28;4.22;;;2.55;;
26822;SDS011;14852;51.910;8.878;2022-10-26T11:26:45;4.18;;;2.15;;
26822;SDS011;14852;51.910;8.878;2022-10-26T11:34:54;6.03;;;2.50;;
26822;SDS011;14852;51.910;8.878;2022-10-26T11:45:56;4.10;;;2.10;;
26822;SDS011;14852;51.910;8.878;2022-10-26T11:48:36;4.70;;;2.60;;
26822;SDS011;14852;51.910;8.878;2022-10-26T11:51:13;7.75;;;2.72;;
26822;SDS011;14852;51.910;8.878;2022-10-26T11:53:53;5.30;;;2.40;;
26822;SDS011;14852;51.910;8.878;2022-10-26T11:56:33;4.97;;;2.47;;
26822;SDS011;14852;51.910;8.878;2022-10-26T11:59:07;4.35;;;2.25;;
26822;SDS011;14852;51.910;8.878;2022-10-26T12:01:49;6.82;;;2.70;;
26822;SDS011;14852;51.910;8.878;2022-10-26T12:04:20;4.65;;;2.80;;
26822;SDS011;14852;51.910;8.878;2022-10-26T12:06:52;4.53;;;2.58;;
26822;SDS011;14852;51.910;8.878;2022-10-26T12:09:22;5.03;;;3.05;;
26822;SDS011;14852;51.910;8.878;2022-10-26T12:11:57;6.07;;;2.60;;
26822;SDS011;14852;51.910;8.878;2022-10-26T12:14:43;3.67;;;2.95;;
26822;SDS011;14852;51.910;8.878;2022-10-26T12:17:38;5.75;;;3.00;;
26822;SDS011;14852;51.910;8.878;2022-10-26T12:23:31;3.50;;;2.38;;
26822;SDS011;14852;51.910;8.878;2022-10-26T12:34:02;3.72;;;2.53;;
26822;SDS011;14852;51.910;8.878;2022-10-26T12:39:31;4.15;;;2.40;;
26822;SDS011;14852;51.910;8.878;2022-10-26T12:44:37;3.35;;;2.47;;
26822;SDS011;14852;51.910;8.878;2022-10-26T12:52:27;4.05;;;2.17;;
26822;SDS011;14852;51.910;8.878;2022-10-26T12:58:11;2.92;;;1.90;;
26822;SDS011;14852;51.910;8.878;2022-10-26T13:01:58;4.70;;;2.08;;
26822;SDS011;14852;51.910;8.878;2022-10-26T13:04:24;4.40;;;2.20;;
26822;SDS011;14852;51.910;8.878;2022-10-26T13:07:18;4.47;;;2.00;;
26822;SDS011;14852;51.910;8.878;2022-10-26T13:12:37;2.75;;;1.88;;
26822;SDS011;14852;51.910;8.878;2022-10-26T13:15:26;2.00;;;1.65;;
26822;SDS011;14852;51.910;8.878;2022-10-26T13:17:53;3.53;;;2.22;;
26822;SDS011;14852;51.910;8.878;2022-10-26T13:20:22;3.03;;;1.60;;
26822;SDS011;14852;51.910;8.878;2022-10-26T13:22:48;3.55;;;2.17;;
26822;SDS011;14852;51.910;8.878;2022-10-26T13:25:17;5.22;;;2.20;;
26822;SDS011;14852;51.910;8.878;2022-10-26T13:28:02;3.20;;;1.80;;
26822;SDS011;14852;51.910;8.878;2022-10-26T13:30:57;1.60;;;1.35;;
26822;SDS011;14852;51.910;8.878;2022-10-26T13:33:25;3.05;;;2.00;;
26822;SDS011;14852;51.910;8.878;2022-10-26T13:36:01;2.95;;;1.70;;
26822;SDS011;14852;51.910;8.878;2022-10-26T13:38:56;3.30;;;1.95;;
26822;SDS011;14852;51.910;8.878;2022-10-26T13:41:34;2.90;;;1.60;;
26822;SDS011;14852;51.910;8.878;2022-10-26T13:44:05;2.35;;;2.15;;
26822;SDS011;14852;51.910;8.878;2022-10-26T13:46:37;4.03;;;1.90;;
26822;SDS011;14852;51.910;8.878;2022-10-26T13:49:06;4.93;;;2.40;;
26822;SDS011;14852;51.910;8.878;2022-10-26T13:51:44;4.45;;;2.83;;
26822;SDS011;14852;51.910;8.878;2022-10-26T13:54:19;3.50;;;1.88;;
26822;SDS011;14852;51.910;8.878;2022-10-26T13:57:01;12.07;;;2.10;;
26822;SDS011;14852;51.910;8.878;2022-10-26T13:59:55;4.60;;;2.08;;
26822;SDS011;14852;51.910;8.878;2022-10-26T14:02:25;5.00;;;2.10;;
26822;SDS011;14852;51.910;8.878;2022-10-26T14:05:04;3.80;;;2.47;;
26822;SDS011;14852;51.910;8.878;2022-10-26T14:07:35;3.35;;;2.17;;
26822;SDS011;14852;51.910;8.878;2022-10-26T14:13:11;3.70;;;1.58;;
26822;SDS011;14852;51.910;8.878;2022-10-26T14:15:44;4.68;;;1.67;;
26822;SDS011;14852;51.910;8.878;2022-10-26T14:18:12;2.97;;;1.77;;
26822;SDS011;14852;51.910;8.878;2022-10-26T14:23:36;3.83;;;1.77;;
26822;SDS011;14852;51.910;8.878;2022-10-26T14:28:53;4.40;;;2.00;;
26822;SDS011;14852;51.910;8.878;2022-10-26T14:31:28;5.10;;;1.90;;
26822;SDS011;14852;51.910;8.878;2022-10-26T14:33:57;4.23;;;2.33;;
26822;SDS011;14852;51.910;8.878;2022-10-26T14:44:56;5.10;;;2.67;;
26822;SDS011;14852;51.910;8.878;2022-10-26T14:47:26;5.70;;;2.72;;
26822;SDS011;14852;51.910;8.878;2022-10-26T14:49:55;4.18;;;2.13;;
26822;SDS011;14852;51.910;8.878;2022-10-26T14:52:22;5.13;;;2.28;;
26822;SDS011;14852;51.910;8.878;2022-10-26T14:54:59;4.32;;;1.80;;
26822;SDS011;14852;51.910;8.878;2022-10-26T14:57:45;4.95;;;1.73;;
26822;SDS011;14852;51.910;8.878;2022-10-26T15:00:18;4.95;;;2.30;;
26822;SDS011;14852;51.910;8.878;2022-10-26T15:02:46;7.70;;;2.40;;
26822;SDS011;14852;51.910;8.878;2022-10-26T15:05:24;4.22;;;2.45;;
26822;SDS011;14852;51.910;8.878;2022-10-26T15:07:54;5.78;;;2.80;;
26822;SDS011;14852;51.910;8.878;2022-10-26T15:13:20;3.30;;;1.90;;
26822;SDS011;14852;51.910;8.878;2022-10-26T15:15:57;3.60;;;2.38;;
26822;SDS011;14852;51.910;8.878;2022-10-26T15:18:49;3.13;;;2.03;;
26822;SDS011;14852;51.910;8.878;2022-10-26T15:21:38;5.13;;;2.33;;
26822;SDS011;14852;51.910;8.878;2022-10-26T15:24:28;7.07;;;2.80;;
26822;SDS011;14852;51.910;8.878;2022-10-26T15:27:00;5.93;;;2.03;;
26822;SDS011;14852;51.910;8.878;2022-10-26T15:29:41;6.70;;;2.20;;
26822;SDS011;14852;51.910;8.878;2022-10-26T15:32:17;3.90;;;2.03;;
26822;SDS011;14852;51.910;8.878;2022-10-26T15:37:44;5.18;;;2.40;;
26822;SDS011;14852;51.910;8.878;2022-10-26T15:40:11;3.63;;;2.30;;
26822;SDS011;14852;51.910;8.878;2022-10-26T15:42:39;6.47;;;2.47;;
26822;SDS011;14852;51.910;8.878;2022-10-26T15:45:17;5.43;;;2.55;;
26822;SDS011;14852;51.910;8.878;2022-10-26T15:47:48;6.40;;;2.17;;
26822;SDS011;14852;51.910;8.878;2022-10-26T15:50:17;4.05;;;1.92;;
26822;SDS011;14852;51.910;8.878;2022-10-26T15:52:49;3.72;;;2.58;;
26822;SDS011;14852;51.910;8.878;2022-10-26T15:55:27;5.43;;;2.00;;
26822;SDS011;14852;51.910;8.878;2022-10-26T15:57:54;3.03;;;1.95;;
26822;SDS011;14852;51.910;8.878;2022-10-26T16:00:20;3.83;;;2.15;;
26822;SDS011;14852;51.910;8.878;2022-10-26T16:02:47;4.72;;;2.17;;
26822;SDS011;14852;51.910;8.878;2022-10-26T16:05:13;4.47;;;2.58;;
26822;SDS011;14852;51.910;8.878;2022-10-26T16:07:41;3.92;;;2.47;;
26822;SDS011;14852;51.910;8.878;2022-10-26T16:10:14;4.78;;;2.28;;
26822;SDS011;14852;51.910;8.878;2022-10-26T16:12:46;3.90;;;2.17;;
26822;SDS011;14852;51.910;8.878;2022-10-26T16:15:15;5.22;;;2.17;;
26822;SDS011;14852;51.910;8.878;2022-10-26T16:17:44;3.47;;;1.88;;
26822;SDS011;14852;51.910;8.878;2022-10-26T16:20:21;6.60;;;2.53;;
26822;SDS011;14852;51.910;8.878;2022-10-26T16:22:52;4.30;;;2.03;;
26822;SDS011;14852;51.910;8.878;2022-10-26T16:25:19;5.47;;;2.47;;
26822;SDS011;14852;51.910;8.878;2022-10-26T16:27:48;5.63;;;2.95;;
26822;SDS011;14852;51.910;8.878;2022-10-26T16:30:14;4.63;;;2.47;;
26822;SDS011;14852;51.910;8.878;2022-10-26T16:32:41;4.57;;;2.25;;
26822;SDS011;14852;51.910;8.878;2022-10-26T16:35:08;3.17;;;2.20;;
26822;SDS011;14852;51.910;8.878;2022-10-26T16:37:35;7.53;;;2.95;;
26822;SDS011;14852;51.910;8.878;2022-10-26T16:40:00;6.63;;;3.28;;
26822;SDS011;14852;51.910;8.878;2022-10-26T16:42:26;5.68;;;3.50;;
26822;SDS011;14852;51.910;8.878;2022-10-26T16:44:54;6.07;;;3.55;;
26822;SDS011;14852;51.910;8.878;2022-10-26T16:47:20;5.55;;;3.58;;
26822;SDS011;14852;51.910;8.878;2022-10-26T16:49:46;6.03;;;4.13;;
26822;SDS011;14852;51.910;8.878;2022-10-26T16:52:12;5.30;;;4.47;;
26822;SDS011;14852;51.910;8.878;2022-10-26T16:54:38;9.73;;;5.75;;
26822;SDS011;14852;51.910;8.878;2022-10-26T16:57:04;9.13;;;5.47;;
26822;SDS011;14852;51.910;8.878;2022-10-26T16:59:30;10.45;;;5.55;;
26822;SDS011;14852;51.910;8.878;2022-10-26T17:01:56;14.68;;;7.88;;
26822;SDS011;14852;51.910;8.878;2022-10-26T17:04:22;7.80;;;5.05;;
26822;SDS011;14852;51.910;8.878;2022-10-26T17:06:48;5.57;;;3.03;;
26822;SDS011;14852;51.910;8.878;2022-10-26T17:09:14;8.43;;;3.17;;
26822;SDS011;14852;51.910;8.878;2022-10-26T17:11:39;4.43;;;2.42;;
26822;SDS011;14852;51.910;8.878;2022-10-26T17:14:05;8.00;;;2.72;;
26822;SDS011;14852;51.910;8.878;2022-10-26T17:16:32;4.95;;;2.92;;
26822;SDS011;14852;51.910;8.878;2022-10-26T17:19:00;6.93;;;3.88;;
26822;SDS011;14852;51.910;8.878;2022-10-26T17:21:27;5.07;;;3.20;;
26822;SDS011;14852;51.910;8.878;2022-10-26T17:23:59;6.00;;;3.03;;
26822;SDS011;14852;51.910;8.878;2022-10-26T17:26:25;5.32;;;2.75;;
26822;SDS011;14852;51.910;8.878;2022-10-26T17:28:52;4.53;;;2.70;;
26822;SDS011;14852;51.910;8.878;2022-10-26T17:31:20;4.65;;;2.20;;
26822;SDS011;14852;51.910;8.878;2022-10-26T17:33:48;4.40;;;3.17;;
26822;SDS011;14852;51.910;8.878;2022-10-26T17:36:15;4.30;;;2.55;;
26822;SDS011;14852;51.910;8.878;2022-10-26T17:38:44;4.65;;;2.30;;
26822;SDS011;14852;51.910;8.878;2022-10-26T17:41:16;4.22;;;2.35;;
26822;SDS011;14852;51.910;8.878;2022-10-26T17:43:43;7.28;;;3.00;;
26822;SDS011;14852;51.910;8.878;2022-10-26T17:46:12;3.55;;;2.17;;
26822;SDS011;14852;51.910;8.878;2022-10-26T17:48:41;7.78;;;2.65;;
26822;SDS011;14852;51.910;8.878;2022-10-26T17:51:11;4.60;;;2.53;;
26822;SDS011;14852;51.910;8.878;2022-10-26T17:53:45;4.80;;;2.88;;
26822;SDS011;14852;51.910;8.878;2022-10-26T17:56:13;5.70;;;3.38;;
26822;SDS011;14852;51.910;8.878;2022-10-26T17:58:41;6.00;;;3.58;;